sensor_id;sensor_type;location;lat;lon;timestamp;pressure;altitude;pressure_sealevel;temperature;humidity
7297;BME280;40758;54.038;11.684;2023-01-28T00:02:29;102613.63;;;-0.50;100.00
7297;BME280;40758;54.038;11.684;2023-01-28T00:05:01;102623.25;;;-0.46;100.00
7297;BME280;40758;54.038;11.684;2023-01-28T00:07:29;102615.28;;;-0.39;100.00
7297;BME280;40758;54.038;11.684;2023-01-28T00:09:58;102612.59;;;-0.32;100.00
7297;BME280;40758;54.038;11.684;2023-01-28T00:12:27;102608.97;;;-0.22;100.00
7297;BME280;40758;54.038;11.684;2023-01-28T00:14:59;102604.56;;;-0.21;100.00
7297;BME280;40758;54.038;11.684;2023-01-28T00:17:28;102616.91;;;-0.23;100.00
7297;BME280;40758;54.038;11.684;2023-01-28T00:19:57;102617.78;;;-0.24;100.00
7297;BME280;40758;54.038;11.684;2023-01-28T00:22:26;102610.78;;;-0.25;100.00
7297;BME280;40758;54.038;11.684;2023-01-28T00:24:54;102618.75;;;-0.31;100.00
7297;BME280;40758;54.038;11.684;2023-01-28T00:27:25;102617.00;;;-0.31;100.00
7297;BME280;40758;54.038;11.684;2023-01-28T00:29:53;102603.75;;;-0.25;100.00
7297;BME280;40758;54.038;11.684;2023-01-28T00:32:25;102610.00;;;-0.39;100.00
7297;BME280;40758;54.038;11.684;2023-01-28T00:34:54;102611.72;;;-0.32;100.00
7297;BME280;40758;54.038;11.684;2023-01-28T00:37:24;102608.19;;;-0.34;100.00
7297;BME280;40758;54.038;11.684;2023-01-28T00:39:54;102602.00;;;-0.30;100.00
7297;BME280;40758;54.038;11.684;2023-01-28T00:42:23;102597.53;;;-0.24;100.00
7297;BME280;40758;54.038;11.684;2023-01-28T00:44:54;102597.56;;;-0.25;100.00
7297;BME280;40758;54.038;11.684;2023-01-28T00:47:27;102596.75;;;-0.32;100.00
7297;BME280;40758;54.038;11.684;2023-01-28T00:49:58;102589.56;;;-0.18;100.00
7297;BME280;40758;54.038;11.684;2023-01-28T00:52:28;102591.44;;;-0.30;100.00
7297;BME280;40758;54.038;11.684;2023-01-28T00:54:57;102601.22;;;-0.40;100.00
7297;BME280;40758;54.038;11.684;2023-01-28T00:57:27;102602.00;;;-0.30;100.00
7297;BME280;40758;54.038;11.684;2023-01-28T00:59:57;102594.94;;;-0.25;100.00
7297;BME280;40758;54.038;11.684;2023-01-28T01:02:28;102608.16;;;-0.28;100.00
7297;BME280;40758;54.038;11.684;2023-01-28T01:04:57;102611.72;;;-0.32;100.00
7297;BME280;40758;54.038;11.684;2023-01-28T01:07:28;102607.38;;;-0.38;100.00
7297;BME280;40758;54.038;11.684;2023-01-28T01:10:09;102609.97;;;-0.36;100.00
7297;BME280;40758;54.038;11.684;2023-01-28T01:12:39;102602.88;;;-0.28;100.00
7297;BME280;40758;54.038;11.684;2023-01-28T01:15:09;102609.03;;;-0.28;100.00
7297;BME280;40758;54.038;11.684;2023-01-28T01:17:44;102610.75;;;-0.24;100.00
7297;BME280;40758;54.038;11.684;2023-01-28T01:20:16;102609.91;;;-0.27;100.00
7297;BME280;40758;54.038;11.684;2023-01-28T01:22:46;102604.56;;;-0.23;100.00
7297;BME280;40758;54.038;11.684;2023-01-28T01:25:16;102600.19;;;-0.24;100.00
7297;BME280;40758;54.038;11.684;2023-01-28T01:27:48;102612.66;;;-0.39;100.00
7297;BME280;40758;54.038;11.684;2023-01-28T01:30:17;102606.44;;;-0.35;100.00
7297;BME280;40758;54.038;11.684;2023-01-28T01:32:47;102607.38;;;-0.41;100.00
7297;BME280;40758;54.038;11.684;2023-01-28T01:35:16;102610.00;;;-0.38;100.00
7297;BME280;40758;54.038;11.684;2023-01-28T01:37:45;102603.03;;;-0.47;100.00
7297;BME280;40758;54.038;11.684;2023-01-28T01:40:14;102599.50;;;-0.47;100.00
7297;BME280;40758;54.038;11.684;2023-01-28T01:42:43;102596.88;;;-0.47;100.00
7297;BME280;40758;54.038;11.684;2023-01-28T01:45:13;102599.50;;;-0.47;100.00
7297;BME280;40758;54.038;11.684;2023-01-28T01:47:53;102596.84;;;-0.46;100.00
7297;BME280;40758;54.038;11.684;2023-01-28T01:50:30;102594.16;;;-0.39;100.00
7297;BME280;40758;54.038;11.684;2023-01-28T01:53:06;102589.72;;;-0.34;100.00
7297;BME280;40758;54.038;11.684;2023-01-28T01:55:41;102579.19;;;-0.37;100.00
7297;BME280;40758;54.038;11.684;2023-01-28T01:58:14;102581.91;;;-0.47;100.00
7297;BME280;40758;54.038;11.684;2023-01-28T02:00:43;102583.69;;;-0.50;100.00
7297;BME280;40758;54.038;11.684;2023-01-28T02:03:17;102587.22;;;-0.51;100.00
7297;BME280;40758;54.038;11.684;2023-01-28T02:05:49;102579.31;;;-0.50;100.00
7297;BME280;40758;54.038;11.684;2023-01-28T02:08:17;102581.03;;;-0.46;100.00
7297;BME280;40758;54.038;11.684;2023-01-28T02:10:54;102578.34;;;-0.43;100.00
7297;BME280;40758;54.038;11.684;2023-01-28T02:13:36;102578.28;;;-0.33;100.00
7297;BME280;40758;54.038;11.684;2023-01-28T02:16:07;102573.81;;;-0.28;100.00
7297;BME280;40758;54.038;11.684;2023-01-28T02:18:39;102579.97;;;-0.29;100.00
7297;BME280;40758;54.038;11.684;2023-01-28T02:21:55;102572.09;;;-0.31;100.00
7297;BME280;40758;54.038;11.684;2023-01-28T02:25:12;102565.94;;;-0.34;100.00
7297;BME280;40758;54.038;11.684;2023-01-28T02:28:12;102563.25;;;-0.25;100.00
7297;BME280;40758;54.038;11.684;2023-01-28T02:30:51;102561.50;;;-0.28;100.00
7297;BME280;40758;54.038;11.684;2023-01-28T02:33:31;102565.91;;;-0.30;100.00
7297;BME280;40758;54.038;11.684;2023-01-28T02:36:16;102561.50;;;-0.28;100.00
7297;BME280;40758;54.038;11.684;2023-01-28T02:38:49;102556.19;;;-0.25;100.00
7297;BME280;40758;54.038;11.684;2023-01-28T02:41:28;102555.25;;;-0.19;100.00
7297;BME280;40758;54.038;11.684;2023-01-28T02:44:02;102549.09;;;-0.21;100.00
7297;BME280;40758;54.038;11.684;2023-01-28T02:46:35;102554.44;;;-0.29;100.00
7297;BME280;40758;54.038;11.684;2023-01-28T02:49:28;102550.97;;;-0.32;100.00
7297;BME280;40758;54.038;11.684;2023-01-28T02:52:24;102538.59;;;-0.29;100.00
7297;BME280;40758;54.038;11.684;2023-01-28T02:55:22;102533.31;;;-0.29;100.00
7297;BME280;40758;54.038;11.684;2023-01-28T02:58:02;102525.41;;;-0.30;100.00
7297;BME280;40758;54.038;11.684;2023-01-28T03:00:44;102537.59;;;-0.17;100.00
7297;BME280;40758;54.038;11.684;2023-01-28T03:03:21;102525.22;;;-0.11;100.00
7297;BME280;40758;54.038;11.684;2023-01-28T03:05:58;102526.06;;;-0.07;100.00
7297;BME280;40758;54.038;11.684;2023-01-28T03:08:37;102521.59;;;-0.02;100.00
7297;BME280;40758;54.038;11.684;2023-01-28T03:11:25;102516.25;;;0.01;100.00
7297;BME280;40758;54.038;11.684;2023-01-28T03:14:15;102523.00;;;0.29;100.00
7297;BME280;40758;54.038;11.684;2023-01-28T03:17:09;102512.34;;;0.35;100.00
7297;BME280;40758;54.038;11.684;2023-01-28T03:19:57;102508.75;;;0.39;100.00
7297;BME280;40758;54.038;11.684;2023-01-28T03:22:50;102512.19;;;0.48;100.00
7297;BME280;40758;54.038;11.684;2023-01-28T03:25:42;102506.16;;;0.36;100.00
7297;BME280;40758;54.038;11.684;2023-01-28T03:28:32;102507.78;;;0.45;100.00
7297;BME280;40758;54.038;11.684;2023-01-28T03:31:21;102510.44;;;0.47;100.00
7297;BME280;40758;54.038;11.684;2023-01-28T03:34:11;102513.06;;;0.48;100.00
7297;BME280;40758;54.038;11.684;2023-01-28T03:36:58;102511.44;;;0.36;100.00
7297;BME280;40758;54.038;11.684;2023-01-28T03:39:29;102503.63;;;0.27;100.00
7297;BME280;40758;54.038;11.684;2023-01-28T03:42:02;102502.81;;;0.22;100.00
7297;BME280;40758;54.038;11.684;2023-01-28T03:44:32;102507.28;;;0.17;100.00
7297;BME280;40758;54.038;11.684;2023-01-28T03:47:22;102503.75;;;0.18;100.00
7297;BME280;40758;54.038;11.684;2023-01-28T03:49:54;102507.22;;;0.22;100.00
7297;BME280;40758;54.038;11.684;2023-01-28T03:52:28;102513.28;;;0.30;100.00
7297;BME280;40758;54.038;11.684;2023-01-28T03:54:58;102518.59;;;0.27;100.00
7297;BME280;40758;54.038;11.684;2023-01-28T03:57:27;102510.59;;;0.34;100.00
7297;BME280;40758;54.038;11.684;2023-01-28T03:59:59;102508.72;;;0.43;100.00
7297;BME280;40758;54.038;11.684;2023-01-28T04:02:27;102514.91;;;0.40;100.00
7297;BME280;40758;54.038;11.684;2023-01-28T04:04:57;102510.56;;;0.36;100.00
7297;BME280;40758;54.038;11.684;2023-01-28T04:07:26;102510.59;;;0.34;100.00
7297;BME280;40758;54.038;11.684;2023-01-28T04:09:55;102508.91;;;0.27;100.00
7297;BME280;40758;54.038;11.684;2023-01-28T04:12:24;102512.53;;;0.19;100.00
7297;BME280;40758;54.038;11.684;2023-01-28T04:14:54;102505.56;;;0.13;100.00
7297;BME280;40758;54.038;11.684;2023-01-28T04:17:23;102518.97;;;-0.02;100.00
7297;BME280;40758;54.038;11.684;2023-01-28T04:19:58;102523.31;;;0.02;100.00
7297;BME280;40758;54.038;11.684;2023-01-28T04:22:27;102525.00;;;0.08;100.00
7297;BME280;40758;54.038;11.684;2023-01-28T04:24:58;102512.91;;;-0.13;100.00
7297;BME280;40758;54.038;11.684;2023-01-28T04:27:27;102522.69;;;-0.23;100.00
7297;BME280;40758;54.038;11.684;2023-01-28T04:29:56;102513.00;;;-0.19;100.00
7297;BME280;40758;54.038;11.684;2023-01-28T04:32:25;102511.25;;;-0.23;100.00
7297;BME280;40758;54.038;11.684;2023-01-28T04:34:53;102512.19;;;-0.30;100.00
7297;BME280;40758;54.038;11.684;2023-01-28T04:37:24;102517.41;;;-0.24;100.00
7297;BME280;40758;54.038;11.684;2023-01-28T04:39:53;102519.28;;;-0.31;100.00
7297;BME280;40758;54.038;11.684;2023-01-28T04:42:24;102521.03;;;-0.31;100.00
7297;BME280;40758;54.038;11.684;2023-01-28T04:44:53;102521.94;;;-0.32;100.00
7297;BME280;40758;54.038;11.684;2023-01-28T04:47:24;102511.28;;;-0.26;100.00
7297;BME280;40758;54.038;11.684;2023-01-28T04:49:54;102513.94;;;-0.25;100.00
7297;BME280;40758;54.038;11.684;2023-01-28T04:52:26;102514.81;;;-0.27;100.00
7297;BME280;40758;54.038;11.684;2023-01-28T04:54:54;102533.31;;;-0.29;100.00
7297;BME280;40758;54.038;11.684;2023-01-28T04:57:24;102524.56;;;-0.31;100.00
7297;BME280;40758;54.038;11.684;2023-01-28T04:59:52;102522.81;;;-0.32;100.00
7297;BME280;40758;54.038;11.684;2023-01-28T05:02:28;102521.81;;;-0.20;100.00
7297;BME280;40758;54.038;11.684;2023-01-28T05:04:57;102521.81;;;-0.23;100.00
7297;BME280;40758;54.038;11.684;2023-01-28T05:07:29;102513.00;;;-0.22;100.00
7297;BME280;40758;54.038;11.684;2023-01-28T05:10:00;102519.22;;;-0.28;100.00
7297;BME280;40758;54.038;11.684;2023-01-28T05:12:29;102529.78;;;-0.25;100.00
7297;BME280;40758;54.038;11.684;2023-01-28T05:15:00;102529.72;;;-0.22;100.00
7297;BME280;40758;54.038;11.684;2023-01-28T05:17:28;102526.19;;;-0.19;100.00
7297;BME280;40758;54.038;11.684;2023-01-28T05:20:05;102532.38;;;-0.23;100.00
7297;BME280;40758;54.038;11.684;2023-01-28T05:22:36;102526.25;;;-0.25;100.00
7297;BME280;40758;54.038;11.684;2023-01-28T05:25:06;102532.44;;;-0.26;100.00
7297;BME280;40758;54.038;11.684;2023-01-28T05:27:35;102524.56;;;-0.32;100.00
7297;BME280;40758;54.038;11.684;2023-01-28T05:30:05;102527.22;;;-0.34;100.00
7297;BME280;40758;54.038;11.684;2023-01-28T05:32:34;102530.81;;;-0.43;100.00
7297;BME280;40758;54.038;11.684;2023-01-28T05:35:04;102527.28;;;-0.42;100.00
7297;BME280;40758;54.038;11.684;2023-01-28T05:37:32;102527.28;;;-0.42;100.00
7297;BME280;40758;54.038;11.684;2023-01-28T05:40:02;102531.66;;;-0.41;100.00
7297;BME280;40758;54.038;11.684;2023-01-28T05:42:31;102530.78;;;-0.39;100.00
7297;BME280;40758;54.038;11.684;2023-01-28T05:45:00;102518.41;;;-0.33;100.00
7297;BME280;40758;54.038;11.684;2023-01-28T05:47:28;102518.34;;;-0.28;100.00
7297;BME280;40758;54.038;11.684;2023-01-28T05:50:00;102518.34;;;-0.25;100.00
7297;BME280;40758;54.038;11.684;2023-01-28T05:52:29;102509.34;;;-0.09;100.00
7297;BME280;40758;54.038;11.684;2023-01-28T05:54:57;102504.13;;;-0.15;100.00
7297;BME280;40758;54.038;11.684;2023-01-28T05:57:29;102501.47;;;-0.14;100.00
7297;BME280;40758;54.038;11.684;2023-01-28T05:59:57;102502.56;;;-0.31;100.00
7297;BME280;40758;54.038;11.684;2023-01-28T06:02:26;102511.50;;;-0.48;100.00
7297;BME280;40758;54.038;11.684;2023-01-28T06:04:54;102513.38;;;-0.59;100.00
7297;BME280;40758;54.038;11.684;2023-01-28T06:07:23;102520.41;;;-0.61;100.00
7297;BME280;40758;54.038;11.684;2023-01-28T06:09:52;102508.97;;;-0.57;100.00
7297;BME280;40758;54.038;11.684;2023-01-28T06:12:22;102514.19;;;-0.55;100.00
7297;BME280;40758;54.038;11.684;2023-01-28T06:14:52;102508.91;;;-0.52;100.00
7297;BME280;40758;54.038;11.684;2023-01-28T06:17:20;102506.22;;;-0.48;100.00
7297;BME280;40758;54.038;11.684;2023-01-28T06:19:49;102498.34;;;-0.54;100.00
7297;BME280;40758;54.038;11.684;2023-01-28T06:22:17;102497.53;;;-0.59;100.00
7297;BME280;40758;54.038;11.684;2023-01-28T06:24:46;102502.78;;;-0.57;100.00
7297;BME280;40758;54.038;11.684;2023-01-28T06:27:14;102511.59;;;-0.57;100.00
7297;BME280;40758;54.038;11.684;2023-01-28T06:29:43;102500.09;;;-0.53;100.00
7297;BME280;40758;54.038;11.684;2023-01-28T06:32:13;102504.47;;;-0.49;100.00
7297;BME280;40758;54.038;11.684;2023-01-28T06:34:42;102493.84;;;-0.43;100.00
7297;BME280;40758;54.038;11.684;2023-01-28T06:37:12;102493.00;;;-0.48;100.00
7297;BME280;40758;54.038;11.684;2023-01-28T06:39:41;102499.16;;;-0.46;100.00
7297;BME280;40758;54.038;11.684;2023-01-28T06:42:10;102497.44;;;-0.50;100.00
7297;BME280;40758;54.038;11.684;2023-01-28T06:44:38;102503.75;;;-0.66;100.00
7297;BME280;40758;54.038;11.684;2023-01-28T06:47:07;102506.41;;;-0.69;100.00
7297;BME280;40758;54.038;11.684;2023-01-28T06:49:38;102513.47;;;-0.74;100.00
7297;BME280;40758;54.038;11.684;2023-01-28T06:52:06;102512.63;;;-0.74;100.00
7297;BME280;40758;54.038;11.684;2023-01-28T06:54:35;102515.28;;;-0.79;100.00
7297;BME280;40758;54.038;11.684;2023-01-28T06:57:03;102519.78;;;-0.89;100.00
7297;BME280;40758;54.038;11.684;2023-01-28T06:59:32;102522.34;;;-0.81;100.00
7297;BME280;40758;54.038;11.684;2023-01-28T07:02:00;102528.50;;;-0.80;100.00
7297;BME280;40758;54.038;11.684;2023-01-28T07:04:30;102528.56;;;-0.87;100.00
7297;BME280;40758;54.038;11.684;2023-01-28T07:07:00;102521.59;;;-0.97;100.00
7297;BME280;40758;54.038;11.684;2023-01-28T07:09:28;102523.34;;;-0.97;100.00
7297;BME280;40758;54.038;11.684;2023-01-28T07:11:58;102532.97;;;-0.89;100.00
7297;BME280;40758;54.038;11.684;2023-01-28T07:14:31;102530.41;;;-1.01;100.00
7297;BME280;40758;54.038;11.684;2023-01-28T07:17:00;102538.41;;;-1.11;100.00
7297;BME280;40758;54.038;11.684;2023-01-28T07:19:28;102545.38;;;-1.01;100.00
7297;BME280;40758;54.038;11.684;2023-01-28T07:21:58;102542.72;;;-1.01;100.00
7297;BME280;40758;54.038;11.684;2023-01-28T07:24:29;102539.25;;;-1.09;100.00
7297;BME280;40758;54.038;11.684;2023-01-28T07:26:59;102540.13;;;-1.10;100.00
7297;BME280;40758;54.038;11.684;2023-01-28T07:29:27;102551.56;;;-1.10;100.00
7297;BME280;40758;54.038;11.684;2023-01-28T07:31:56;102547.09;;;-0.94;100.00
7297;BME280;40758;54.038;11.684;2023-01-28T07:34:25;102555.75;;;-0.80;100.00
7297;BME280;40758;54.038;11.684;2023-01-28T07:36:54;102566.19;;;-0.62;100.00
7297;BME280;40758;54.038;11.684;2023-01-28T07:39:26;102564.28;;;-0.45;100.00
7297;BME280;40758;54.038;11.684;2023-01-28T07:41:54;102568.59;;;-0.33;100.00
7297;BME280;40758;54.038;11.684;2023-01-28T07:44:24;102558.84;;;-0.29;100.00
7297;BME280;40758;54.038;11.684;2023-01-28T07:46:53;102555.25;;;-0.21;100.00
7297;BME280;40758;54.038;11.684;2023-01-28T07:49:23;102548.09;;;-0.11;100.00
7297;BME280;40758;54.038;11.684;2023-01-28T07:51:52;102549.78;;;-0.04;100.00
7297;BME280;40758;54.038;11.684;2023-01-28T07:54:25;102553.25;;;0.01;100.00
7297;BME280;40758;54.038;11.684;2023-01-28T07:56:54;102553.13;;;0.13;100.00
7297;BME280;40758;54.038;11.684;2023-01-28T07:59:23;102547.75;;;0.19;100.00
7297;BME280;40758;54.038;11.684;2023-01-28T08:01:52;102562.72;;;0.22;100.00
7297;BME280;40758;54.038;11.684;2023-01-28T08:04:21;102553.88;;;0.26;100.00
7297;BME280;40758;54.038;11.684;2023-01-28T08:06:50;102552.91;;;0.31;100.00
7297;BME280;40758;54.038;11.684;2023-01-28T08:09:19;102567.00;;;0.35;100.00
7297;BME280;40758;54.038;11.684;2023-01-28T08:11:49;102571.41;;;0.33;100.00
7297;BME280;40758;54.038;11.684;2023-01-28T08:14:17;102566.13;;;0.31;100.00
7297;BME280;40758;54.038;11.684;2023-01-28T08:16:46;102573.16;;;0.35;100.00
7297;BME280;40758;54.038;11.684;2023-01-28T08:19:14;102572.22;;;0.38;100.00
7297;BME280;40758;54.038;11.684;2023-01-28T08:21:46;102567.88;;;0.35;100.00
7297;BME280;40758;54.038;11.684;2023-01-28T08:24:15;102568.59;;;0.47;100.00
7297;BME280;40758;54.038;11.684;2023-01-28T08:26:48;102561.47;;;0.52;100.00
7297;BME280;40758;54.038;11.684;2023-01-28T08:29:17;102566.59;;;0.65;100.00
7297;BME280;40758;54.038;11.684;2023-01-28T08:31:46;102552.47;;;0.68;100.00
7297;BME280;40758;54.038;11.684;2023-01-28T08:34:14;102564.78;;;0.69;100.00
7297;BME280;40758;54.038;11.684;2023-01-28T08:36:43;102561.31;;;0.64;100.00
7297;BME280;40758;54.038;11.684;2023-01-28T08:39:12;102566.59;;;0.67;100.00
7297;BME280;40758;54.038;11.684;2023-01-28T08:41:40;102563.97;;;0.62;100.00
7297;BME280;40758;54.038;11.684;2023-01-28T08:44:10;102577.19;;;0.64;100.00
7297;BME280;40758;54.038;11.684;2023-01-28T08:46:39;102571.88;;;0.67;100.00
7297;BME280;40758;54.038;11.684;2023-01-28T08:49:07;102566.50;;;0.73;100.00
7297;BME280;40758;54.038;11.684;2023-01-28T08:51:36;102580.53;;;0.78;100.00
7297;BME280;40758;54.038;11.684;2023-01-28T08:54:04;102579.44;;;0.94;100.00
7297;BME280;40758;54.038;11.684;2023-01-28T08:56:33;102570.59;;;0.94;100.00
7297;BME280;40758;54.038;11.684;2023-01-28T08:59:02;102574.03;;;1.00;100.00
7297;BME280;40758;54.038;11.684;2023-01-28T09:01:32;102584.59;;;1.05;100.00
7297;BME280;40758;54.038;11.684;2023-01-28T09:04:00;102579.31;;;1.02;100.00
7297;BME280;40758;54.038;11.684;2023-01-28T09:06:30;102595.13;;;1.08;100.00
7297;BME280;40758;54.038;11.684;2023-01-28T09:08:59;102593.28;;;1.13;100.00
7297;BME280;40758;54.038;11.684;2023-01-28T09:11:28;102592.31;;;1.18;100.00
7297;BME280;40758;54.038;11.684;2023-01-28T09:13:58;102587.06;;;1.15;100.00
7297;BME280;40758;54.038;11.684;2023-01-28T09:16:27;102598.47;;;1.20;100.00
7297;BME280;40758;54.038;11.684;2023-01-28T09:18:58;102600.22;;;1.23;100.00
7297;BME280;40758;54.038;11.684;2023-01-28T09:21:26;102593.09;;;1.23;100.00
7297;BME280;40758;54.038;11.684;2023-01-28T09:23:55;102593.09;;;1.25;100.00
7297;BME280;40758;54.038;11.684;2023-01-28T09:26:24;102607.13;;;1.30;100.00
7297;BME280;40758;54.038;11.684;2023-01-28T09:28:53;102617.69;;;1.35;100.00
7297;BME280;40758;54.038;11.684;2023-01-28T09:31:24;102624.66;;;1.39;100.00
7297;BME280;40758;54.038;11.684;2023-01-28T09:33:53;102621.94;;;1.43;100.00
7297;BME280;40758;54.038;11.684;2023-01-28T09:36:25;102625.53;;;1.41;100.00
7297;BME280;40758;54.038;11.684;2023-01-28T09:39:01;102612.66;;;1.16;100.00
7297;BME280;40758;54.038;11.684;2023-01-28T09:41:43;102622.28;;;1.20;100.00
7297;BME280;40758;54.038;11.684;2023-01-28T09:44:35;102620.44;;;1.26;100.00
7297;BME280;40758;54.038;11.684;2023-01-28T09:47:18;102620.34;;;1.32;100.00
7297;BME280;40758;54.038;11.684;2023-01-28T09:49:54;102610.63;;;1.34;100.00
7297;BME280;40758;54.038;11.684;2023-01-28T09:52:33;102614.19;;;1.31;100.00
7297;BME280;40758;54.038;11.684;2023-01-28T09:55:06;102605.25;;;1.38;100.00
7297;BME280;40758;54.038;11.684;2023-01-28T09:57:44;102608.06;;;1.28;100.00
7297;BME280;40758;54.038;11.684;2023-01-28T10:00:17;102599.25;;;1.26;100.00
7297;BME280;40758;54.038;11.684;2023-01-28T10:03:07;102596.63;;;1.24;100.00
7297;BME280;40758;54.038;11.684;2023-01-28T10:05:54;102586.31;;;1.62;100.00
7297;BME280;40758;54.038;11.684;2023-01-28T10:09:06;102566.75;;;2.19;100.00
7297;BME280;40758;54.038;11.684;2023-01-28T10:12:00;102564.69;;;2.34;99.60
7297;BME280;40758;54.038;11.684;2023-01-28T10:14:48;102560.09;;;2.41;97.99
7297;BME280;40758;54.038;11.684;2023-01-28T10:17:30;102558.38;;;2.40;97.05
7297;BME280;40758;54.038;11.684;2023-01-28T10:20:05;102545.75;;;2.51;95.50
7297;BME280;40758;54.038;11.684;2023-01-28T10:22:43;102543.03;;;2.54;94.99
7297;BME280;40758;54.038;11.684;2023-01-28T10:25:19;102551.25;;;2.83;94.88
7297;BME280;40758;54.038;11.684;2023-01-28T10:27:49;102550.91;;;2.97;94.87
7297;BME280;40758;54.038;11.684;2023-01-28T10:30:21;102541.97;;;3.38;93.53
7297;BME280;40758;54.038;11.684;2023-01-28T10:32:55;102539.03;;;3.50;92.50
7297;BME280;40758;54.038;11.684;2023-01-28T10:35:27;102531.34;;;3.72;91.88
7297;BME280;40758;54.038;11.684;2023-01-28T10:38:03;102535.50;;;3.13;90.32
7297;BME280;40758;54.038;11.684;2023-01-28T10:40:36;102536.09;;;2.47;90.64
7297;BME280;40758;54.038;11.684;2023-01-28T10:43:04;102545.50;;;2.63;91.41
7297;BME280;40758;54.038;11.684;2023-01-28T10:45:41;102540.13;;;2.23;91.59
7297;BME280;40758;54.038;11.684;2023-01-28T10:48:19;102558.63;;;2.28;92.86
7297;BME280;40758;54.038;11.684;2023-01-28T10:50:51;102553.06;;;2.40;93.05
7297;BME280;40758;54.038;11.684;2023-01-28T10:53:35;102550.69;;;3.08;93.49
7297;BME280;40758;54.038;11.684;2023-01-28T10:56:08;102524.25;;;3.73;91.68
7297;BME280;40758;54.038;11.684;2023-01-28T10:58:52;102500.81;;;4.19;89.94
7297;BME280;40758;54.038;11.684;2023-01-28T11:01:25;102492.00;;;4.17;87.89
7297;BME280;40758;54.038;11.684;2023-01-28T11:03:58;102480.00;;;3.02;87.41
7297;BME280;40758;54.038;11.684;2023-01-28T11:06:28;102499.41;;;2.26;88.55
7297;BME280;40758;54.038;11.684;2023-01-28T11:08:58;102491.97;;;2.01;89.59
7297;BME280;40758;54.038;11.684;2023-01-28T11:11:29;102485.31;;;1.79;90.18
7297;BME280;40758;54.038;11.684;2023-01-28T11:13:57;102485.50;;;1.70;90.95
7297;BME280;40758;54.038;11.684;2023-01-28T11:16:27;102486.13;;;1.84;92.04
7297;BME280;40758;54.038;11.684;2023-01-28T11:19:03;102480.31;;;1.64;91.31
7297;BME280;40758;54.038;11.684;2023-01-28T11:21:34;102479.66;;;1.51;91.82
7297;BME280;40758;54.038;11.684;2023-01-28T11:24:12;102466.78;;;1.32;91.44
7297;BME280;40758;54.038;11.684;2023-01-28T11:26:48;102458.28;;;1.11;92.27
7297;BME280;40758;54.038;11.684;2023-01-28T11:29:24;102470.72;;;1.06;93.04
7297;BME280;40758;54.038;11.684;2023-01-28T11:31:53;102471.03;;;0.88;93.28
7297;BME280;40758;54.038;11.684;2023-01-28T11:34:27;102455.34;;;0.74;93.50
7297;BME280;40758;54.038;11.684;2023-01-28T11:37:03;102451.56;;;0.92;93.91
7297;BME280;40758;54.038;11.684;2023-01-28T11:39:32;102446.84;;;1.60;93.91
7297;BME280;40758;54.038;11.684;2023-01-28T11:42:13;102419.59;;;2.38;92.59
7297;BME280;40758;54.038;11.684;2023-01-28T11:44:43;102402.16;;;2.65;91.18
7297;BME280;40758;54.038;11.684;2023-01-28T11:47:38;102406.69;;;3.31;89.42
7297;BME280;40758;54.038;11.684;2023-01-28T11:50:24;102367.91;;;3.87;87.01
7297;BME280;40758;54.038;11.684;2023-01-28T11:53:19;102361.38;;;3.97;85.22
7297;BME280;40758;54.038;11.684;2023-01-28T11:56:08;102380.66;;;4.05;83.70
7297;BME280;40758;54.038;11.684;2023-01-28T11:58:53;102389.72;;;3.67;82.52
7297;BME280;40758;54.038;11.684;2023-01-28T12:01:46;102370.38;;;3.31;82.83
7297;BME280;40758;54.038;11.684;2023-01-28T12:04:31;102375.50;;;3.37;83.45
7297;BME280;40758;54.038;11.684;2023-01-28T12:07:22;102383.16;;;3.15;83.20
7297;BME280;40758;54.038;11.684;2023-01-28T12:10:01;102389.63;;;3.05;82.92
7297;BME280;40758;54.038;11.684;2023-01-28T12:13:05;102397.00;;;3.60;82.82
7297;BME280;40758;54.038;11.684;2023-01-28T12:16:17;102391.81;;;3.87;81.37
7297;BME280;40758;54.038;11.684;2023-01-28T12:19:32;102390.13;;;4.14;80.78
7297;BME280;40758;54.038;11.684;2023-01-28T12:22:26;102391.09;;;4.11;79.47
7297;BME280;40758;54.038;11.684;2023-01-28T12:25:28;102385.16;;;4.59;79.06
7297;BME280;40758;54.038;11.684;2023-01-28T12:28:07;102383.09;;;4.68;78.20
7297;BME280;40758;54.038;11.684;2023-01-28T12:31:01;102372.00;;;4.54;77.71
7297;BME280;40758;54.038;11.684;2023-01-28T12:33:52;102359.91;;;3.57;77.70
7297;BME280;40758;54.038;11.684;2023-01-28T12:36:40;102381.03;;;2.60;79.87
7297;BME280;40758;54.038;11.684;2023-01-28T12:39:26;102386.56;;;2.51;81.74
7297;BME280;40758;54.038;11.684;2023-01-28T12:42:08;102387.19;;;2.24;82.00
7297;BME280;40758;54.038;11.684;2023-01-28T12:44:43;102392.97;;;2.02;83.10
7297;BME280;40758;54.038;11.684;2023-01-28T12:47:21;102392.22;;;1.97;83.58
7297;BME280;40758;54.038;11.684;2023-01-28T12:49:54;102397.69;;;1.88;83.58
7297;BME280;40758;54.038;11.684;2023-01-28T12:52:31;102392.91;;;2.06;84.58
7297;BME280;40758;54.038;11.684;2023-01-28T12:55:12;102393.41;;;2.23;85.25
7297;BME280;40758;54.038;11.684;2023-01-28T12:57:43;102374.00;;;2.21;84.74
7297;BME280;40758;54.038;11.684;2023-01-28T13:00:25;102367.97;;;2.14;85.41
7297;BME280;40758;54.038;11.684;2023-01-28T13:03:15;102373.94;;;2.22;86.19
7297;BME280;40758;54.038;11.684;2023-01-28T13:05:50;102358.34;;;2.47;86.47
7297;BME280;40758;54.038;11.684;2023-01-28T13:08:22;102352.25;;;2.43;85.86
7297;BME280;40758;54.038;11.684;2023-01-28T13:10:53;102354.88;;;2.45;86.00
7297;BME280;40758;54.038;11.684;2023-01-28T13:13:29;102355.06;;;2.36;86.28
7297;BME280;40758;54.038;11.684;2023-01-28T13:16:00;102360.75;;;2.21;86.25
7297;BME280;40758;54.038;11.684;2023-01-28T13:18:43;102360.97;;;2.10;86.43
7297;BME280;40758;54.038;11.684;2023-01-28T13:21:27;102367.81;;;2.22;86.34
7297;BME280;40758;54.038;11.684;2023-01-28T13:24:20;102363.38;;;1.82;85.84
7297;BME280;40758;54.038;11.684;2023-01-28T13:26:51;102367.63;;;1.91;86.55